createdAt,value
2023-05-08T00:02:04.468Z,6.20
2023-05-08T00:04:33.159Z,6.24
2023-05-08T00:07:01.068Z,6.22
2023-05-08T00:09:28.985Z,6.27
2023-05-08T00:11:56.714Z,6.17
2023-05-08T00:14:24.564Z,6.20
2023-05-08T00:16:52.371Z,6.18
2023-05-08T00:19:20.217Z,6.12
2023-05-08T00:21:47.896Z,6.18
2023-05-08T00:24:15.531Z,6.27
2023-05-08T00:26:44.579Z,6.19
2023-05-08T00:29:12.576Z,6.12
2023-05-08T00:31:40.158Z,6.17
2023-05-08T00:34:07.860Z,6.24
2023-05-08T00:36:35.445Z,6.29
2023-05-08T00:39:03.016Z,6.28
2023-05-08T00:41:30.529Z,6.29
2023-05-08T00:43:58.019Z,6.35
2023-05-08T00:46:26.251Z,6.45
2023-05-08T00:48:54.191Z,6.32
2023-05-08T00:51:23.220Z,6.36
2023-05-08T00:53:51.122Z,6.44
2023-05-08T00:56:20.905Z,6.43
2023-05-08T00:58:48.812Z,6.49
2023-05-08T01:01:16.701Z,6.51
2023-05-08T01:03:45.486Z,6.48
2023-05-08T01:06:13.537Z,6.38
2023-05-08T01:08:41.995Z,6.31
2023-05-08T01:11:24.364Z,6.62
2023-05-08T01:14:25.370Z,6.65
2023-05-08T01:17:07.594Z,6.90
2023-05-08T01:19:49.140Z,6.80
2023-05-08T01:22:41.524Z,6.93
2023-05-08T01:25:59.484Z,6.94
2023-05-08T01:28:51.311Z,6.98
2023-05-08T01:31:32.580Z,7.01
2023-05-08T01:34:06.992Z,7.07
2023-05-08T01:36:52.194Z,7.19
2023-05-08T01:39:22.956Z,7.21
2023-05-08T01:42:03.465Z,7.37
2023-05-08T01:44:38.725Z,7.44
2023-05-08T01:47:09.160Z,7.49
2023-05-08T01:49:44.124Z,7.61
2023-05-08T01:52:36.481Z,7.87
2023-05-08T01:55:13.012Z,7.98
2023-05-08T01:57:47.311Z,8.06
2023-05-08T02:00:18.837Z,8.22
2023-05-08T02:02:48.848Z,8.18
2023-05-08T02:05:18.076Z,8.35
2023-05-08T02:07:50.236Z,8.53
2023-05-08T02:10:21.007Z,8.69
2023-05-08T02:12:50.318Z,8.71
2023-05-08T02:15:19.268Z,8.89
2023-05-08T02:17:49.896Z,9.07
2023-05-08T02:20:19.866Z,9.25
2023-05-08T02:22:51.758Z,9.42
2023-05-08T02:25:20.140Z,9.57
2023-05-08T02:27:49.833Z,9.75
2023-05-08T02:30:19.622Z,9.85
2023-05-08T02:32:49.173Z,9.95
2023-05-08T02:35:19.935Z,9.87
2023-05-08T02:37:53.104Z,9.81
2023-05-08T02:40:25.030Z,9.70
2023-05-08T02:42:53.073Z,9.85
2023-05-08T02:45:20.946Z,10.43
2023-05-08T02:48:04.609Z,10.99
2023-05-08T02:50:56.526Z,11.39
2023-05-08T02:53:36.337Z,12.24
2023-05-08T02:56:11.372Z,13.01
2023-05-08T02:58:51.131Z,13.41
2023-05-08T03:01:19.632Z,14.30
2023-05-08T03:03:53.623Z,14.84
2023-05-08T03:06:27.502Z,15.67
2023-05-08T03:09:00.209Z,16.30
2023-05-08T03:11:37.533Z,16.93
2023-05-08T03:14:10.206Z,17.12
2023-05-08T03:16:40.175Z,16.95
2023-05-08T03:19:16.293Z,16.63
2023-05-08T03:21:45.257Z,16.15
2023-05-08T03:24:17.912Z,16.00
2023-05-08T03:26:46.371Z,15.72
2023-05-08T03:29:16.032Z,15.59
2023-05-08T03:31:45.163Z,15.80
2023-05-08T03:34:14.250Z,15.87
2023-05-08T03:36:42.729Z,16.03
2023-05-08T03:39:10.351Z,16.05
2023-05-08T03:41:38.242Z,16.04
2023-05-08T03:44:08.090Z,16.09
2023-05-08T03:46:37.766Z,16.10
2023-05-08T03:49:06.528Z,16.63
2023-05-08T03:51:37.555Z,16.99
2023-05-08T03:54:05.190Z,17.67
2023-05-08T03:56:34.015Z,18.00
2023-05-08T03:59:15.698Z,18.12
2023-05-08T04:01:59.492Z,18.32
2023-05-08T04:04:40.644Z,18.85
2023-05-08T04:07:25.265Z,18.96
2023-05-08T04:10:03.716Z,20.03
2023-05-08T04:12:56.304Z,20.78
2023-05-08T04:15:29.718Z,22.09
2023-05-08T04:18:04.702Z,22.78
2023-05-08T04:20:34.095Z,23.61
2023-05-08T04:23:04.712Z,24.09
2023-05-08T04:25:36.836Z,24.67
2023-05-08T04:28:05.321Z,25.43
2023-05-08T04:30:34.291Z,25.93
2023-05-08T04:33:05.340Z,25.89
2023-05-08T04:35:34.837Z,26.27
2023-05-08T04:38:03.778Z,26.86
2023-05-08T04:40:31.848Z,27.34
2023-05-08T04:42:59.776Z,27.78
2023-05-08T04:45:27.988Z,28.27
2023-05-08T04:47:55.774Z,28.73
2023-05-08T04:50:24.149Z,29.20
2023-05-08T04:52:52.049Z,29.43
2023-05-08T04:55:20.372Z,29.70
2023-05-08T04:57:48.587Z,29.88
2023-05-08T05:00:17.447Z,30.20
2023-05-08T05:02:47.129Z,30.46
2023-05-08T05:05:15.102Z,30.72
2023-05-08T05:07:42.856Z,30.92
2023-05-08T05:10:12.210Z,31.11
2023-05-08T05:12:41.069Z,31.25
2023-05-08T05:15:09.341Z,31.69
2023-05-08T05:17:39.120Z,31.86
2023-05-08T05:20:09.276Z,32.08
2023-05-08T05:22:37.340Z,32.26
2023-05-08T05:25:06.033Z,32.49
2023-05-08T05:27:37.536Z,32.49
2023-05-08T05:30:07.772Z,32.67
2023-05-08T05:32:35.783Z,32.88
2023-05-08T05:35:03.708Z,33.12
2023-05-08T05:37:33.934Z,33.16
2023-05-08T05:40:01.590Z,33.39
2023-05-08T05:42:31.955Z,33.61
2023-05-08T05:44:59.917Z,33.27
2023-05-08T05:47:27.837Z,33.45
2023-05-08T05:49:56.046Z,33.44
2023-05-08T05:52:23.736Z,33.46
2023-05-08T05:54:51.364Z,33.62
2023-05-08T05:57:19.005Z,33.78
2023-05-08T05:59:46.878Z,33.93
2023-05-08T06:02:19.074Z,34.06
2023-05-08T06:04:47.646Z,33.52
2023-05-08T06:07:15.167Z,34.10
2023-05-08T06:09:42.729Z,34.18
2023-05-08T06:12:12.255Z,34.30
2023-05-08T06:14:40.239Z,34.26
2023-05-08T06:17:08.106Z,34.29
2023-05-08T06:19:35.991Z,34.30
2023-05-08T06:22:03.771Z,33.91
2023-05-08T06:24:31.593Z,33.94
2023-05-08T06:26:59.578Z,34.02
2023-05-08T06:29:27.173Z,34.28
2023-05-08T06:31:54.829Z,34.46
2023-05-08T06:34:22.379Z,34.66
2023-05-08T06:36:49.920Z,34.78
2023-05-08T06:39:17.592Z,34.85
2023-05-08T06:41:49.092Z,34.81
2023-05-08T06:44:25.233Z,34.41
2023-05-08T06:46:52.971Z,34.47
2023-05-08T06:49:20.658Z,34.57
2023-05-08T06:51:48.246Z,34.66
2023-05-08T06:54:15.826Z,34.69
2023-05-08T06:56:43.605Z,34.73
2023-05-08T06:59:11.308Z,34.98
2023-05-08T07:01:39.068Z,35.08
2023-05-08T07:04:06.816Z,35.27
2023-05-08T07:06:34.889Z,35.41
2023-05-08T07:09:03.089Z,35.51
2023-05-08T07:11:30.880Z,35.41
2023-05-08T07:13:58.465Z,35.32
2023-05-08T07:16:26.197Z,34.91
2023-05-08T07:18:53.890Z,34.52
2023-05-08T07:21:21.931Z,34.16
2023-05-08T07:23:51.929Z,33.87
2023-05-08T07:26:21.822Z,33.41
2023-05-08T07:28:51.104Z,32.82
2023-05-08T07:31:18.686Z,32.35
2023-05-08T07:33:47.333Z,31.68
2023-05-08T07:36:14.902Z,31.02
2023-05-08T07:38:42.612Z,30.35
2023-05-08T07:41:10.466Z,29.74
2023-05-08T07:43:38.463Z,29.20
2023-05-08T07:46:06.694Z,28.82
2023-05-08T07:48:34.158Z,28.24
2023-05-08T07:51:01.848Z,27.84
2023-05-08T07:53:29.377Z,27.51
2023-05-08T07:55:56.939Z,27.11
2023-05-08T07:58:24.706Z,26.88
2023-05-08T08:00:52.556Z,26.54
2023-05-08T08:03:20.462Z,26.19
2023-05-08T08:05:48.152Z,26.08
2023-05-08T08:08:15.667Z,25.85
2023-05-08T08:10:44.129Z,25.75
2023-05-08T08:13:11.808Z,25.45
2023-05-08T08:15:40.053Z,25.28
2023-05-08T08:18:08.115Z,24.99
2023-05-08T08:20:39.521Z,25.23
2023-05-08T08:23:07.260Z,24.75
2023-05-08T08:25:34.771Z,24.39
2023-05-08T08:28:02.422Z,24.16
2023-05-08T08:30:30.015Z,23.90
2023-05-08T08:32:57.680Z,23.72
2023-05-08T08:35:29.566Z,23.58
2023-05-08T08:37:57.680Z,23.41
2023-05-08T08:40:25.342Z,23.14
2023-05-08T08:42:53.023Z,22.91
2023-05-08T08:45:20.733Z,22.66
2023-05-08T08:47:48.948Z,22.43
2023-05-08T08:50:19.966Z,22.28
2023-05-08T08:53:01.223Z,22.31
2023-05-08T08:55:30.362Z,22.11
2023-05-08T08:58:18.450Z,22.30
2023-05-08T09:00:47.902Z,21.53
2023-05-08T09:03:16.162Z,21.26
2023-05-08T09:05:45.635Z,21.11
2023-05-08T09:08:13.551Z,21.16
2023-05-08T09:10:41.477Z,20.81
2023-05-08T09:13:09.267Z,20.57
2023-05-08T09:15:37.034Z,20.37
2023-05-08T09:18:05.022Z,20.20
2023-05-08T09:20:33.992Z,20.01
2023-05-08T09:23:05.128Z,19.94
2023-05-08T09:25:46.914Z,20.20
2023-05-08T09:28:21.813Z,19.94
2023-05-08T09:31:00.041Z,19.50
2023-05-08T09:33:30.100Z,19.09
2023-05-08T09:35:58.266Z,18.92
2023-05-08T09:38:40.378Z,19.16
2023-05-08T09:41:16.609Z,18.82
2023-05-08T09:43:45.366Z,18.61
2023-05-08T09:46:27.064Z,19.01
2023-05-08T09:48:59.249Z,18.46
2023-05-08T09:51:30.136Z,18.35
2023-05-08T09:53:59.405Z,18.18
2023-05-08T09:56:39.769Z,18.48
2023-05-08T09:59:34.096Z,18.36
2023-05-08T10:02:11.242Z,18.09
2023-05-08T10:04:39.020Z,17.67
2023-05-08T10:07:06.716Z,17.49
2023-05-08T10:09:46.854Z,17.44
2023-05-08T10:12:19.435Z,17.23
2023-05-08T10:14:47.215Z,17.25
2023-05-08T10:17:21.862Z,17.20
2023-05-08T10:19:55.968Z,17.07
2023-05-08T10:22:25.826Z,16.88
2023-05-08T10:25:01.956Z,16.86
2023-05-08T10:27:41.639Z,16.72
2023-05-08T10:30:11.508Z,16.67
2023-05-08T10:32:43.699Z,16.59
2023-05-08T10:35:12.397Z,16.51
2023-05-08T10:37:42.648Z,16.39
2023-05-08T10:40:11.606Z,16.29
2023-05-08T10:42:42.545Z,16.30
2023-05-08T10:45:11.080Z,16.22
2023-05-08T10:48:05.811Z,16.58
2023-05-08T10:50:45.373Z,16.42
2023-05-08T10:53:48.341Z,16.43
2023-05-08T10:56:15.985Z,15.97
2023-05-08T10:58:43.627Z,15.87
2023-05-08T11:01:12.903Z,15.90
2023-05-08T11:03:43.802Z,15.96
2023-05-08T11:06:12.166Z,15.86
2023-05-08T11:08:54.926Z,16.00
2023-05-08T11:11:34.425Z,15.92
2023-05-08T11:14:08.037Z,15.91
2023-05-08T11:16:54.037Z,15.98
2023-05-08T11:19:23.590Z,15.63
2023-05-08T11:22:23.992Z,15.97
2023-05-08T11:25:04.369Z,15.80
2023-05-08T11:27:41.258Z,15.71
2023-05-08T11:30:44.605Z,15.84
2023-05-08T11:33:16.207Z,15.58
2023-05-08T11:35:48.880Z,15.60
2023-05-08T11:38:29.567Z,15.75
2023-05-08T11:40:59.893Z,15.55
2023-05-08T11:43:33.633Z,15.53
2023-05-08T11:46:14.029Z,15.28
2023-05-08T11:48:41.648Z,15.22
2023-05-08T11:51:09.926Z,15.18
2023-05-08T11:53:38.419Z,15.12
2023-05-08T11:56:06.536Z,15.13
2023-05-08T11:58:34.182Z,15.10
2023-05-08T12:01:01.812Z,15.03
2023-05-08T12:03:29.871Z,15.06
2023-05-08T12:05:59.030Z,15.08
2023-05-08T12:08:27.126Z,15.01
2023-05-08T12:10:58.645Z,15.07
2023-05-08T12:13:30.673Z,14.97
2023-05-08T12:16:00.746Z,14.94
2023-05-08T12:18:30.819Z,14.93
2023-05-08T12:21:01.316Z,14.85
2023-05-08T12:23:30.230Z,14.88
2023-05-08T12:26:02.096Z,14.89
2023-05-08T12:28:32.554Z,14.67
2023-05-08T12:31:00.822Z,14.64
2023-05-08T12:33:29.225Z,14.64
2023-05-08T12:35:58.003Z,14.67
2023-05-08T12:38:27.306Z,14.70
2023-05-08T12:40:58.292Z,14.55
2023-05-08T12:43:33.551Z,14.70
2023-05-08T12:46:02.218Z,14.56
2023-05-08T12:48:30.702Z,14.48
2023-05-08T12:51:04.219Z,14.61
2023-05-08T12:53:33.799Z,14.56
2023-05-08T12:56:03.873Z,14.54
2023-05-08T12:58:34.255Z,14.51
2023-05-08T13:01:20.390Z,14.74
2023-05-08T13:04:01.506Z,14.51
2023-05-08T13:06:30.070Z,14.31
2023-05-08T13:08:57.933Z,14.33
2023-05-08T13:11:31.362Z,14.42
2023-05-08T13:13:59.278Z,14.29
2023-05-08T13:16:26.961Z,14.23
2023-05-08T13:18:54.560Z,14.10
2023-05-08T13:21:22.172Z,14.07
2023-05-08T13:23:49.773Z,14.07
2023-05-08T13:26:17.329Z,14.08
2023-05-08T13:28:44.911Z,14.05
2023-05-08T13:31:12.617Z,14.02
2023-05-08T13:33:40.179Z,13.93
2023-05-08T13:36:08.510Z,13.93
2023-05-08T13:38:36.167Z,13.91
2023-05-08T13:41:04.282Z,13.81
2023-05-08T13:43:31.793Z,13.78
2023-05-08T13:45:59.482Z,13.78
2023-05-08T13:48:27.020Z,13.70
2023-05-08T13:50:54.707Z,13.63
2023-05-08T13:53:22.312Z,13.58
2023-05-08T13:55:49.990Z,13.57
2023-05-08T13:58:17.596Z,13.45
2023-05-08T14:00:45.736Z,13.36
2023-05-08T14:03:13.317Z,13.38
2023-05-08T14:05:40.962Z,13.26
2023-05-08T14:08:08.626Z,13.28
2023-05-08T14:10:36.161Z,13.23
2023-05-08T14:13:04.265Z,13.25
2023-05-08T14:15:36.440Z,13.23
2023-05-08T14:18:06.142Z,13.08
2023-05-08T14:20:33.726Z,12.91
2023-05-08T14:23:01.340Z,12.91
2023-05-08T14:25:29.029Z,12.93
2023-05-08T14:27:56.569Z,12.81
2023-05-08T14:30:24.294Z,12.77
2023-05-08T14:32:51.891Z,12.74
2023-05-08T14:35:19.592Z,12.69
2023-05-08T14:37:47.205Z,12.69
2023-05-08T14:40:14.774Z,12.67
2023-05-08T14:42:42.420Z,12.58
2023-05-08T14:45:10.338Z,12.51
2023-05-08T14:47:39.067Z,12.43
2023-05-08T14:50:07.100Z,12.41
2023-05-08T14:52:34.616Z,12.34
2023-05-08T14:55:02.520Z,12.30
2023-05-08T14:57:31.873Z,12.25
2023-05-08T14:59:59.516Z,12.18
2023-05-08T15:02:27.143Z,12.12
2023-05-08T15:04:54.773Z,12.16
2023-05-08T15:07:22.287Z,12.11
2023-05-08T15:09:49.904Z,12.10
2023-05-08T15:12:17.530Z,12.05
2023-05-08T15:14:45.085Z,11.94
2023-05-08T15:17:12.690Z,11.86
2023-05-08T15:19:40.262Z,11.82
2023-05-08T15:22:07.849Z,11.90
2023-05-08T15:24:35.489Z,11.83
2023-05-08T15:27:03.132Z,11.71
2023-05-08T15:29:30.955Z,11.71
2023-05-08T15:31:58.957Z,11.61
2023-05-08T15:34:29.217Z,11.55
2023-05-08T15:37:00.198Z,11.51
2023-05-08T15:39:27.814Z,11.45
2023-05-08T15:41:55.395Z,11.40
2023-05-08T15:44:24.754Z,11.28
2023-05-08T15:46:52.621Z,11.30
2023-05-08T15:49:20.237Z,11.23
2023-05-08T15:51:47.797Z,11.14
2023-05-08T15:54:15.268Z,11.08
2023-05-08T15:56:42.857Z,11.04
2023-05-08T15:59:10.732Z,11.00
2023-05-08T16:01:39.097Z,10.96
2023-05-08T16:04:06.728Z,10.90
2023-05-08T16:06:34.655Z,10.86
2023-05-08T16:09:03.159Z,10.82
2023-05-08T16:11:32.201Z,10.77
2023-05-08T16:14:00.295Z,10.69
2023-05-08T16:16:28.364Z,10.66
2023-05-08T16:18:56.061Z,10.61
2023-05-08T16:21:23.632Z,10.61
2023-05-08T16:23:51.296Z,10.52
2023-05-08T16:26:18.853Z,10.48
2023-05-08T16:28:46.376Z,10.43
2023-05-08T16:31:14.296Z,10.37
2023-05-08T16:33:42.447Z,10.36
2023-05-08T16:36:10.369Z,10.32
2023-05-08T16:38:38.137Z,10.27
2023-05-08T16:41:07.074Z,10.25
2023-05-08T16:43:34.698Z,10.10
2023-05-08T16:46:02.245Z,10.10
2023-05-08T16:48:30.658Z,10.03
2023-05-08T16:50:58.324Z,10.04
2023-05-08T16:53:28.554Z,10.03
2023-05-08T16:55:56.150Z,9.97
2023-05-08T16:58:23.783Z,9.92
2023-05-08T17:00:51.303Z,9.89
2023-05-08T17:03:19.216Z,9.84
2023-05-08T17:05:46.814Z,9.85
2023-05-08T17:08:14.297Z,9.82
2023-05-08T17:10:42.149Z,9.75
2023-05-08T17:13:09.901Z,9.80
2023-05-08T17:15:37.587Z,9.71
2023-05-08T17:18:05.343Z,9.72
2023-05-08T17:20:40.931Z,9.73
2023-05-08T17:23:09.717Z,9.70
2023-05-08T17:25:37.501Z,9.66
2023-05-08T17:28:05.287Z,9.62
2023-05-08T17:30:33.061Z,9.58
2023-05-08T17:33:00.893Z,9.56
2023-05-08T17:35:28.690Z,9.47
2023-05-08T17:37:56.244Z,9.43
2023-05-08T17:40:23.981Z,9.43
2023-05-08T17:42:51.452Z,9.43
2023-05-08T17:45:19.221Z,9.39
2023-05-08T17:47:46.743Z,9.35
2023-05-08T17:50:14.394Z,9.31
2023-05-08T17:52:42.162Z,9.26
2023-05-08T17:55:10.411Z,9.26
2023-05-08T17:57:38.076Z,9.23
2023-05-08T18:00:09.414Z,9.20
2023-05-08T18:02:37.079Z,9.19
2023-05-08T18:05:04.985Z,9.11
2023-05-08T18:07:33.017Z,9.11
2023-05-08T18:10:00.605Z,9.08
2023-05-08T18:12:28.180Z,9.08
2023-05-08T18:14:55.816Z,9.06
2023-05-08T18:17:23.496Z,9.02
2023-05-08T18:19:51.222Z,8.99
2023-05-08T18:22:18.816Z,8.95
2023-05-08T18:24:46.563Z,8.89
2023-05-08T18:27:14.056Z,8.85
2023-05-08T18:29:41.677Z,8.86
2023-05-08T18:32:09.230Z,8.81
2023-05-08T18:34:36.967Z,8.81
2023-05-08T18:37:04.526Z,8.81
2023-05-08T18:39:32.153Z,8.79
2023-05-08T18:41:59.755Z,8.73
2023-05-08T18:44:27.425Z,8.73
2023-05-08T18:46:56.608Z,8.68
2023-05-08T18:49:24.189Z,8.66
2023-05-08T18:51:51.832Z,8.64
2023-05-08T18:54:19.997Z,8.60
2023-05-08T18:56:47.677Z,8.56
2023-05-08T18:59:15.418Z,8.60
2023-05-08T19:01:43.027Z,8.52
2023-05-08T19:04:10.655Z,8.46
2023-05-08T19:06:38.354Z,8.44
2023-05-08T19:09:06.008Z,8.44
2023-05-08T19:11:33.860Z,8.37
2023-05-08T19:14:01.576Z,8.35
2023-05-08T19:16:29.421Z,8.34
2023-05-08T19:18:57.152Z,8.34
2023-05-08T19:21:25.069Z,8.31
2023-05-08T19:23:52.927Z,8.32
2023-05-08T19:26:20.487Z,8.27
2023-05-08T19:28:48.064Z,8.26
2023-05-08T19:31:15.887Z,8.25
2023-05-08T19:33:43.504Z,8.21
2023-05-08T19:36:11.089Z,8.18
2023-05-08T19:38:40.409Z,8.17
2023-05-08T19:41:08.280Z,8.14
2023-05-08T19:43:36.702Z,8.14
2023-05-08T19:46:04.300Z,8.09
2023-05-08T19:48:31.973Z,8.06
2023-05-08T19:51:06.384Z,8.15
2023-05-08T19:53:33.967Z,8.00
2023-05-08T19:56:01.802Z,8.00
2023-05-08T19:58:29.479Z,7.97
2023-05-08T20:00:57.149Z,7.94
2023-05-08T20:03:25.218Z,7.85
2023-05-08T20:05:53.342Z,7.87
2023-05-08T20:08:21.320Z,7.84
2023-05-08T20:10:49.369Z,7.79
2023-05-08T20:13:17.854Z,7.86
2023-05-08T20:15:45.914Z,7.81
2023-05-08T20:18:13.638Z,7.80
2023-05-08T20:20:41.415Z,7.83
2023-05-08T20:23:08.974Z,7.83
2023-05-08T20:25:36.690Z,7.76
2023-05-08T20:28:04.232Z,7.77
2023-05-08T20:30:31.814Z,7.75
2023-05-08T20:33:05.175Z,7.61
2023-05-08T20:35:33.355Z,7.64
2023-05-08T20:38:01.072Z,7.61
2023-05-08T20:40:28.954Z,7.57
2023-05-08T20:42:56.542Z,7.55
2023-05-08T20:45:24.358Z,7.54
2023-05-08T20:47:52.013Z,7.55
2023-05-08T20:50:19.651Z,7.53
2023-05-08T20:52:47.231Z,7.50
2023-05-08T20:55:15.024Z,7.48
2023-05-08T20:57:42.822Z,7.45
2023-05-08T21:00:10.893Z,7.45
2023-05-08T21:02:42.989Z,7.45
2023-05-08T21:05:11.570Z,7.41
2023-05-08T21:07:39.483Z,7.34
2023-05-08T21:10:07.917Z,7.34
2023-05-08T21:12:35.917Z,7.16
2023-05-08T21:15:03.520Z,7.31
2023-05-08T21:17:32.955Z,7.32
2023-05-08T21:20:00.694Z,7.15
2023-05-08T21:22:28.264Z,7.28
2023-05-08T21:24:55.793Z,7.25
2023-05-08T21:27:23.506Z,7.17
2023-05-08T21:29:51.109Z,7.22
2023-05-08T21:32:18.607Z,7.17
2023-05-08T21:34:46.203Z,7.17
2023-05-08T21:37:13.920Z,7.16
2023-05-08T21:39:42.118Z,6.92
2023-05-08T21:42:09.799Z,7.11
2023-05-08T21:44:37.356Z,7.11
2023-05-08T21:47:04.919Z,7.13
2023-05-08T21:49:32.652Z,7.02
2023-05-08T21:52:00.315Z,7.07
2023-05-08T21:54:27.847Z,7.05
2023-05-08T21:56:55.601Z,7.02
2023-05-08T21:59:23.196Z,6.96
2023-05-08T22:01:51.564Z,7.03
2023-05-08T22:04:19.101Z,6.95
2023-05-08T22:06:46.717Z,6.94
2023-05-08T22:09:14.273Z,6.93
2023-05-08T22:11:41.766Z,6.93
2023-05-08T22:14:09.317Z,6.93
2023-05-08T22:16:37.068Z,6.91
2023-05-08T22:19:04.609Z,6.93
2023-05-08T22:21:32.380Z,6.91
2023-05-08T22:24:00.265Z,6.88
2023-05-08T22:26:29.024Z,6.84
2023-05-08T22:28:56.652Z,6.84
2023-05-08T22:31:24.371Z,6.81
2023-05-08T22:33:52.211Z,6.80
2023-05-08T22:36:19.983Z,6.79
2023-05-08T22:38:47.453Z,6.74
2023-05-08T22:41:15.152Z,6.72
2023-05-08T22:43:42.941Z,6.66
2023-05-08T22:46:10.754Z,6.51
2023-05-08T22:48:38.503Z,6.54
2023-05-08T22:51:07.805Z,6.57
2023-05-08T22:53:35.281Z,6.47
2023-05-08T22:56:02.840Z,6.43
2023-05-08T22:58:30.390Z,6.41
2023-05-08T23:00:59.876Z,6.34
2023-05-08T23:03:27.769Z,6.33
2023-05-08T23:05:55.411Z,6.29
2023-05-08T23:08:23.039Z,6.24
2023-05-08T23:10:50.739Z,6.28
2023-05-08T23:13:18.325Z,6.24
2023-05-08T23:15:45.925Z,6.14
2023-05-08T23:18:13.516Z,6.20
2023-05-08T23:20:41.104Z,6.15
2023-05-08T23:23:08.733Z,6.13
2023-05-08T23:25:36.360Z,6.05
2023-05-08T23:28:03.909Z,6.07
2023-05-08T23:30:31.471Z,6.02
2023-05-08T23:32:59.162Z,6.03
2023-05-08T23:35:26.880Z,6.02
2023-05-08T23:37:54.401Z,5.96
2023-05-08T23:40:22.203Z,5.98
2023-05-08T23:42:49.717Z,5.98
2023-05-08T23:45:17.437Z,5.96
2023-05-08T23:47:45.111Z,5.97
2023-05-08T23:50:13.122Z,5.89
2023-05-08T23:52:42.275Z,5.98
2023-05-08T23:55:10.277Z,5.90
2023-05-08T23:57:37.870Z,5.89
